sensor_id;sensor_type;location;lat;lon;timestamp;pressure;altitude;pressure_sealevel;temperature;humidity
27712;BME280;2377;51.734;8.950;2023-01-27T00:00:27;98338.38;;;1.79;100.00
27712;BME280;2377;51.734;8.950;2023-01-27T00:02:54;98333.44;;;1.78;100.00
27712;BME280;2377;51.734;8.950;2023-01-27T00:05:21;98336.75;;;1.78;100.00
27712;BME280;2377;51.734;8.950;2023-01-27T00:07:48;98339.16;;;1.80;100.00
27712;BME280;2377;51.734;8.950;2023-01-27T00:10:18;98342.44;;;1.80;100.00
27712;BME280;2377;51.734;8.950;2023-01-27T00:12:47;98342.75;;;1.77;100.00
27712;BME280;2377;51.734;8.950;2023-01-27T00:15:33;98339.28;;;1.78;100.00
27712;BME280;2377;51.734;8.950;2023-01-27T00:18:01;98338.06;;;1.82;100.00
27712;BME280;2377;51.734;8.950;2023-01-27T00:20:28;98336.69;;;1.88;100.00
27712;BME280;2377;51.734;8.950;2023-01-27T00:23:15;98342.81;;;1.85;100.00
27712;BME280;2377;51.734;8.950;2023-01-27T00:26:04;98345.50;;;1.84;100.00
27712;BME280;2377;51.734;8.950;2023-01-27T00:28:32;98334.47;;;1.85;100.00
27712;BME280;2377;51.734;8.950;2023-01-27T00:31:01;98336.69;;;1.88;100.00
27712;BME280;2377;51.734;8.950;2023-01-27T00:33:28;98338.41;;;1.87;100.00
27712;BME280;2377;51.734;8.950;2023-01-27T00:35:59;98342.03;;;1.85;100.00
27712;BME280;2377;51.734;8.950;2023-01-27T00:38:28;98342.81;;;1.85;100.00
27712;BME280;2377;51.734;8.950;2023-01-27T00:40:57;98345.97;;;1.87;100.00
27712;BME280;2377;51.734;8.950;2023-01-27T00:43:46;98344.41;;;1.86;100.00
27712;BME280;2377;51.734;8.950;2023-01-27T00:46:17;98340.94;;;1.87;100.00
27712;BME280;2377;51.734;8.950;2023-01-27T00:48:45;98348.50;;;1.87;100.00
27712;BME280;2377;51.734;8.950;2023-01-27T00:51:12;98340.81;;;1.89;100.00
27712;BME280;2377;51.734;8.950;2023-01-27T00:53:40;98333.53;;;1.86;100.00
27712;BME280;2377;51.734;8.950;2023-01-27T00:56:07;98334.59;;;1.83;100.00
27712;BME280;2377;51.734;8.950;2023-01-27T00:58:35;98336.69;;;1.88;100.00
27712;BME280;2377;51.734;8.950;2023-01-27T01:01:06;98341.09;;;1.86;100.00
27712;BME280;2377;51.734;8.950;2023-01-27T01:03:35;98339.50;;;1.85;100.00
27712;BME280;2377;51.734;8.950;2023-01-27T01:06:06;98345.06;;;1.88;100.00
27712;BME280;2377;51.734;8.950;2023-01-27T01:08:35;98344.13;;;1.89;100.00
27712;BME280;2377;51.734;8.950;2023-01-27T01:11:03;98347.59;;;1.88;100.00
27712;BME280;2377;51.734;8.950;2023-01-27T01:13:31;98347.28;;;1.92;100.00
27712;BME280;2377;51.734;8.950;2023-01-27T01:16:04;98351.25;;;1.94;100.00
27712;BME280;2377;51.734;8.950;2023-01-27T01:18:33;98350.47;;;1.94;100.00
27712;BME280;2377;51.734;8.950;2023-01-27T01:21:01;98349.38;;;1.96;100.00
27712;BME280;2377;51.734;8.950;2023-01-27T01:23:28;98351.59;;;1.99;100.00
27712;BME280;2377;51.734;8.950;2023-01-27T01:25:56;98354.28;;;1.98;100.00
27712;BME280;2377;51.734;8.950;2023-01-27T01:28:25;98351.78;;;1.98;100.00
27712;BME280;2377;51.734;8.950;2023-01-27T01:30:52;98358.25;;;2.00;100.00
27712;BME280;2377;51.734;8.950;2023-01-27T01:33:19;98353.22;;;2.00;100.00
27712;BME280;2377;51.734;8.950;2023-01-27T01:35:47;98363.13;;;2.02;100.00
27712;BME280;2377;51.734;8.950;2023-01-27T01:38:14;98356.66;;;1.99;100.00
27712;BME280;2377;51.734;8.950;2023-01-27T01:40:43;98355.06;;;1.98;100.00
27712;BME280;2377;51.734;8.950;2023-01-27T01:43:16;98364.06;;;2.01;100.00
27712;BME280;2377;51.734;8.950;2023-01-27T01:45:51;98367.25;;;2.03;100.00
27712;BME280;2377;51.734;8.950;2023-01-27T01:48:28;98362.34;;;2.01;100.00
27712;BME280;2377;51.734;8.950;2023-01-27T01:51:04;98355.56;;;2.02;100.00
27712;BME280;2377;51.734;8.950;2023-01-27T01:53:40;98358.38;;;1.99;100.00
27712;BME280;2377;51.734;8.950;2023-01-27T01:56:13;98366.88;;;1.98;100.00
27712;BME280;2377;51.734;8.950;2023-01-27T01:58:44;98363.44;;;1.99;100.00
27712;BME280;2377;51.734;8.950;2023-01-27T02:01:15;98358.69;;;1.96;100.00
27712;BME280;2377;51.734;8.950;2023-01-27T02:03:50;98356.16;;;1.96;100.00
27712;BME280;2377;51.734;8.950;2023-01-27T02:06:20;98358.81;;;1.94;100.00
27712;BME280;2377;51.734;8.950;2023-01-27T02:08:49;98361.69;;;1.99;100.00
27712;BME280;2377;51.734;8.950;2023-01-27T02:11:17;98362.47;;;2.00;100.00
27712;BME280;2377;51.734;8.950;2023-01-27T02:13:44;98364.72;;;2.03;100.00
27712;BME280;2377;51.734;8.950;2023-01-27T02:16:12;98358.91;;;2.02;100.00
27712;BME280;2377;51.734;8.950;2023-01-27T02:18:41;98359.69;;;2.03;100.00
27712;BME280;2377;51.734;8.950;2023-01-27T02:21:09;98359.69;;;2.03;100.00
27712;BME280;2377;51.734;8.950;2023-01-27T02:23:52;98352.91;;;2.03;100.00
27712;BME280;2377;51.734;8.950;2023-01-27T02:26:25;98357.81;;;2.05;100.00
27712;BME280;2377;51.734;8.950;2023-01-27T02:28:57;98357.94;;;2.03;100.00
27712;BME280;2377;51.734;8.950;2023-01-27T02:31:24;98366.47;;;2.02;100.00
27712;BME280;2377;51.734;8.950;2023-01-27T02:33:57;98361.25;;;2.04;100.00
27712;BME280;2377;51.734;8.950;2023-01-27T02:36:27;98362.84;;;2.05;100.00
27712;BME280;2377;51.734;8.950;2023-01-27T02:38:59;98356.88;;;2.06;100.00
27712;BME280;2377;51.734;8.950;2023-01-27T02:41:33;98362.69;;;2.06;100.00
27712;BME280;2377;51.734;8.950;2023-01-27T02:44:01;98360.47;;;2.03;100.00
27712;BME280;2377;51.734;8.950;2023-01-27T02:46:28;98367.75;;;2.06;100.00
27712;BME280;2377;51.734;8.950;2023-01-27T02:48:56;98376.91;;;2.07;100.00
27712;BME280;2377;51.734;8.950;2023-01-27T02:51:23;98372.66;;;2.08;100.00
27712;BME280;2377;51.734;8.950;2023-01-27T02:53:51;98370.13;;;2.08;100.00
27712;BME280;2377;51.734;8.950;2023-01-27T02:56:18;98369.84;;;2.11;100.00
27712;BME280;2377;51.734;8.950;2023-01-27T02:58:46;98375.97;;;2.08;100.00
27712;BME280;2377;51.734;8.950;2023-01-27T03:01:14;98376.09;;;2.07;100.00
27712;BME280;2377;51.734;8.950;2023-01-27T03:03:41;98375.16;;;2.08;100.00
27712;BME280;2377;51.734;8.950;2023-01-27T03:06:11;98374.38;;;2.07;100.00
27712;BME280;2377;51.734;8.950;2023-01-27T03:08:39;98373.44;;;2.08;100.00
27712;BME280;2377;51.734;8.950;2023-01-27T03:11:07;98373.44;;;2.08;100.00
27712;BME280;2377;51.734;8.950;2023-01-27T03:13:35;98367.59;;;2.08;100.00
27712;BME280;2377;51.734;8.950;2023-01-27T03:16:06;98373.44;;;2.08;100.00
27712;BME280;2377;51.734;8.950;2023-01-27T03:18:51;98370.78;;;2.10;100.00
27712;BME280;2377;51.734;8.950;2023-01-27T03:21:21;98373.56;;;2.07;100.00
27712;BME280;2377;51.734;8.950;2023-01-27T03:23:48;98381.66;;;2.10;100.00
27712;BME280;2377;51.734;8.950;2023-01-27T03:26:15;98362.28;;;2.11;100.00
27712;BME280;2377;51.734;8.950;2023-01-27T03:28:42;98367.97;;;2.13;100.00
27712;BME280;2377;51.734;8.950;2023-01-27T03:31:30;98365.75;;;2.10;100.00
27712;BME280;2377;51.734;8.950;2023-01-27T03:33:57;98368.09;;;2.11;100.00
27712;BME280;2377;51.734;8.950;2023-01-27T03:36:24;98372.22;;;2.13;100.00
27712;BME280;2377;51.734;8.950;2023-01-27T03:39:09;98372.34;;;2.11;100.00
27712;BME280;2377;51.734;8.950;2023-01-27T03:41:53;98371.69;;;2.09;100.00
27712;BME280;2377;51.734;8.950;2023-01-27T03:44:38;98371.44;;;2.12;100.00
27712;BME280;2377;51.734;8.950;2023-01-27T03:47:25;98373.78;;;2.14;100.00
27712;BME280;2377;51.734;8.950;2023-01-27T03:49:53;98367.97;;;2.13;100.00
27712;BME280;2377;51.734;8.950;2023-01-27T03:52:20;98379.50;;;2.16;100.00
27712;BME280;2377;51.734;8.950;2023-01-27T03:54:47;98376.19;;;2.15;100.00
27712;BME280;2377;51.734;8.950;2023-01-27T03:57:14;98378.41;;;2.18;100.00
27712;BME280;2377;51.734;8.950;2023-01-27T03:59:42;98376.53;;;2.20;100.00
27712;BME280;2377;51.734;8.950;2023-01-27T04:02:09;98368.47;;;2.17;100.00
27712;BME280;2377;51.734;8.950;2023-01-27T04:04:55;98379.34;;;2.17;100.00
27712;BME280;2377;51.734;8.950;2023-01-27T04:07:39;98374.44;;;2.16;100.00
27712;BME280;2377;51.734;8.950;2023-01-27T04:10:08;98365.16;;;2.16;100.00
27712;BME280;2377;51.734;8.950;2023-01-27T04:12:35;98366.22;;;2.14;100.00
27712;BME280;2377;51.734;8.950;2023-01-27T04:15:01;98375.09;;;2.18;100.00
27712;BME280;2377;51.734;8.950;2023-01-27T04:17:28;98370.06;;;2.18;100.00
27712;BME280;2377;51.734;8.950;2023-01-27T04:20:06;98381.56;;;2.20;100.00
27712;BME280;2377;51.734;8.950;2023-01-27T04:22:33;98381.56;;;2.20;100.00
27712;BME280;2377;51.734;8.950;2023-01-27T04:25:00;98382.38;;;2.21;100.00
27712;BME280;2377;51.734;8.950;2023-01-27T04:27:27;98379.69;;;2.22;100.00
27712;BME280;2377;51.734;8.950;2023-01-27T04:29:54;98377.31;;;2.21;100.00
27712;BME280;2377;51.734;8.950;2023-01-27T04:32:21;98382.09;;;2.24;100.00
27712;BME280;2377;51.734;8.950;2023-01-27T04:34:48;98383.53;;;2.26;100.00
27712;BME280;2377;51.734;8.950;2023-01-27T04:37:17;98382.59;;;2.27;100.00
27712;BME280;2377;51.734;8.950;2023-01-27T04:39:44;98394.28;;;2.28;100.00
27712;BME280;2377;51.734;8.950;2023-01-27T04:42:12;98395.84;;;2.29;100.00
27712;BME280;2377;51.734;8.950;2023-01-27T04:44:39;98399.81;;;2.32;100.00
27712;BME280;2377;51.734;8.950;2023-01-27T04:47:06;98401.25;;;2.35;100.00
27712;BME280;2377;51.734;8.950;2023-01-27T04:49:34;98390.22;;;2.36;100.00
27712;BME280;2377;51.734;8.950;2023-01-27T04:52:01;98399.16;;;2.30;100.00
27712;BME280;2377;51.734;8.950;2023-01-27T04:54:29;98409.75;;;2.33;100.00
27712;BME280;2377;51.734;8.950;2023-01-27T04:56:59;98409.41;;;2.28;100.00
27712;BME280;2377;51.734;8.950;2023-01-27T04:59:28;98407.44;;;2.22;100.00
27712;BME280;2377;51.734;8.950;2023-01-27T05:01:55;98416.31;;;2.26;100.00
27712;BME280;2377;51.734;8.950;2023-01-27T05:04:22;98418.97;;;2.25;100.00
27712;BME280;2377;51.734;8.950;2023-01-27T05:06:50;98416.31;;;2.26;100.00
27712;BME280;2377;51.734;8.950;2023-01-27T05:09:18;98416.31;;;2.26;100.00
27712;BME280;2377;51.734;8.950;2023-01-27T05:11:46;98422.16;;;2.27;100.00
27712;BME280;2377;51.734;8.950;2023-01-27T05:14:13;98430.66;;;2.26;100.00
27712;BME280;2377;51.734;8.950;2023-01-27T05:16:41;98423.72;;;2.28;100.00
27712;BME280;2377;51.734;8.950;2023-01-27T05:19:08;98433.69;;;2.29;100.00
27712;BME280;2377;51.734;8.950;2023-01-27T05:21:35;98433.97;;;2.26;100.00
27712;BME280;2377;51.734;8.950;2023-01-27T05:24:03;98435.25;;;2.30;100.00
27712;BME280;2377;51.734;8.950;2023-01-27T05:26:30;98439.25;;;2.33;100.00
27712;BME280;2377;51.734;8.950;2023-01-27T05:28:58;98431.66;;;2.33;100.00
27712;BME280;2377;51.734;8.950;2023-01-27T05:31:28;98440.94;;;2.32;100.00
27712;BME280;2377;51.734;8.950;2023-01-27T05:33:59;98444.13;;;2.35;100.00
27712;BME280;2377;51.734;8.950;2023-01-27T05:36:27;98432.47;;;2.33;100.00
27712;BME280;2377;51.734;8.950;2023-01-27T05:38:55;98435.91;;;2.32;100.00
27712;BME280;2377;51.734;8.950;2023-01-27T05:41:23;98439.06;;;2.35;100.00
27712;BME280;2377;51.734;8.950;2023-01-27T05:43:53;98440.69;;;2.36;100.00
27712;BME280;2377;51.734;8.950;2023-01-27T05:46:24;98444.13;;;2.35;100.00
27712;BME280;2377;51.734;8.950;2023-01-27T05:48:55;98448.25;;;2.36;100.00
27712;BME280;2377;51.734;8.950;2023-01-27T05:51:24;98447.94;;;2.39;100.00
27712;BME280;2377;51.734;8.950;2023-01-27T05:53:52;98448.59;;;2.41;100.00
27712;BME280;2377;51.734;8.950;2023-01-27T05:56:21;98449.53;;;2.40;100.00
27712;BME280;2377;51.734;8.950;2023-01-27T05:58:48;98455.50;;;2.39;100.00
27712;BME280;2377;51.734;8.950;2023-01-27T06:01:18;98457.09;;;2.40;100.00
27712;BME280;2377;51.734;8.950;2023-01-27T06:03:48;98457.09;;;2.40;100.00
27712;BME280;2377;51.734;8.950;2023-01-27T06:06:17;98457.25;;;2.38;100.00
27712;BME280;2377;51.734;8.950;2023-01-27T06:08:46;98454.44;;;2.41;100.00
27712;BME280;2377;51.734;8.950;2023-01-27T06:11:15;98465.31;;;2.42;100.00
27712;BME280;2377;51.734;8.950;2023-01-27T06:13:45;98467.81;;;2.42;100.00
27712;BME280;2377;51.734;8.950;2023-01-27T06:16:15;98471.78;;;2.44;100.00
27712;BME280;2377;51.734;8.950;2023-01-27T06:18:43;98476.72;;;2.46;100.00
27712;BME280;2377;51.734;8.950;2023-01-27T06:21:14;98460.91;;;2.44;100.00
27712;BME280;2377;51.734;8.950;2023-01-27T06:23:41;98460.91;;;2.44;100.00
27712;BME280;2377;51.734;8.950;2023-01-27T06:26:12;98474.31;;;2.44;100.00
27712;BME280;2377;51.734;8.950;2023-01-27T06:28:40;98476.72;;;2.46;100.00
27712;BME280;2377;51.734;8.950;2023-01-27T06:31:11;98470.88;;;2.45;100.00
27712;BME280;2377;51.734;8.950;2023-01-27T06:33:39;98480.31;;;2.43;100.00
27712;BME280;2377;51.734;8.950;2023-01-27T06:36:09;98479.22;;;2.46;100.00
27712;BME280;2377;51.734;8.950;2023-01-27T06:38:38;98486.00;;;2.45;100.00
27712;BME280;2377;51.734;8.950;2023-01-27T06:41:05;98485.50;;;2.42;100.00
27712;BME280;2377;51.734;8.950;2023-01-27T06:43:32;98493.72;;;2.44;100.00
27712;BME280;2377;51.734;8.950;2023-01-27T06:46:00;98486.31;;;2.42;100.00
27712;BME280;2377;51.734;8.950;2023-01-27T06:48:27;98492.13;;;2.43;100.00
27712;BME280;2377;51.734;8.950;2023-01-27T06:50:55;98487.88;;;2.43;100.00
27712;BME280;2377;51.734;8.950;2023-01-27T06:53:23;98483.63;;;2.44;100.00
27712;BME280;2377;51.734;8.950;2023-01-27T06:55:56;98493.72;;;2.44;100.00
27712;BME280;2377;51.734;8.950;2023-01-27T06:58:23;98495.31;;;2.45;100.00
27712;BME280;2377;51.734;8.950;2023-01-27T07:00:51;98491.06;;;2.45;100.00
27712;BME280;2377;51.734;8.950;2023-01-27T07:03:18;98503.50;;;2.47;100.00
27712;BME280;2377;51.734;8.950;2023-01-27T07:05:45;98504.47;;;2.46;100.00
27712;BME280;2377;51.734;8.950;2023-01-27T07:08:12;98496.75;;;2.47;100.00
27712;BME280;2377;51.734;8.950;2023-01-27T07:10:39;98504.16;;;2.49;100.00
27712;BME280;2377;51.734;8.950;2023-01-27T07:13:09;98503.25;;;2.50;100.00
27712;BME280;2377;51.734;8.950;2023-01-27T07:15:38;98498.19;;;2.50;100.00
27712;BME280;2377;51.734;8.950;2023-01-27T07:18:05;98505.75;;;2.50;100.00
27712;BME280;2377;51.734;8.950;2023-01-27T07:20:33;98502.59;;;2.48;100.00
27712;BME280;2377;51.734;8.950;2023-01-27T07:23:02;98510.81;;;2.50;100.00
27712;BME280;2377;51.734;8.950;2023-01-27T07:25:31;98516.66;;;2.50;100.00
27712;BME280;2377;51.734;8.950;2023-01-27T07:27:59;98514.91;;;2.51;100.00
27712;BME280;2377;51.734;8.950;2023-01-27T07:30:29;98512.25;;;2.52;100.00
27712;BME280;2377;51.734;8.950;2023-01-27T07:33:03;98515.25;;;2.56;100.00
27712;BME280;2377;51.734;8.950;2023-01-27T07:35:30;98523.50;;;2.58;100.00
27712;BME280;2377;51.734;8.950;2023-01-27T07:37:57;98526.00;;;2.58;100.00
27712;BME280;2377;51.734;8.950;2023-01-27T07:40:25;98528.53;;;2.58;100.00
27712;BME280;2377;51.734;8.950;2023-01-27T07:42:52;98528.28;;;2.61;100.00
27712;BME280;2377;51.734;8.950;2023-01-27T07:45:19;98525.59;;;2.63;100.00
27712;BME280;2377;51.734;8.950;2023-01-27T07:47:47;98533.03;;;2.64;100.00
27712;BME280;2377;51.734;8.950;2023-01-27T07:50:15;98522.28;;;2.62;100.00
27712;BME280;2377;51.734;8.950;2023-01-27T07:52:42;98528.63;;;2.66;100.00
27712;BME280;2377;51.734;8.950;2023-01-27T07:55:09;98529.53;;;2.65;100.00
27712;BME280;2377;51.734;8.950;2023-01-27T07:57:36;98531.81;;;2.68;100.00
27712;BME280;2377;51.734;8.950;2023-01-27T08:00:05;98534.16;;;2.70;100.00
27712;BME280;2377;51.734;8.950;2023-01-27T08:02:32;98532.28;;;2.72;100.00
27712;BME280;2377;51.734;8.950;2023-01-27T08:05:00;98531.88;;;2.77;100.00
27712;BME280;2377;51.734;8.950;2023-01-27T08:07:27;98538.00;;;2.74;100.00
27712;BME280;2377;51.734;8.950;2023-01-27T08:09:54;98537.88;;;2.75;100.00
27712;BME280;2377;51.734;8.950;2023-01-27T08:12:22;98544.06;;;2.81;100.00
27712;BME280;2377;51.734;8.950;2023-01-27T08:14:49;98539.78;;;2.82;100.00
27712;BME280;2377;51.734;8.950;2023-01-27T08:17:16;98544.41;;;2.86;100.00
27712;BME280;2377;51.734;8.950;2023-01-27T08:19:43;98541.75;;;2.88;100.00
27712;BME280;2377;51.734;8.950;2023-01-27T08:22:11;98540.38;;;2.93;100.00
27712;BME280;2377;51.734;8.950;2023-01-27T08:24:44;98544.34;;;2.96;100.00
27712;BME280;2377;51.734;8.950;2023-01-27T08:27:11;98543.41;;;2.97;100.00
27712;BME280;2377;51.734;8.950;2023-01-27T08:29:38;98541.81;;;2.96;100.00
27712;BME280;2377;51.734;8.950;2023-01-27T08:32:05;98553.34;;;2.99;100.00
27712;BME280;2377;51.734;8.950;2023-01-27T08:34:32;98550.03;;;2.98;100.00
27712;BME280;2377;51.734;8.950;2023-01-27T08:37:00;98547.88;;;3.03;100.00
27712;BME280;2377;51.734;8.950;2023-01-27T08:39:28;98557.03;;;3.04;100.00
27712;BME280;2377;51.734;8.950;2023-01-27T08:41:55;98549.97;;;3.08;100.00
27712;BME280;2377;51.734;8.950;2023-01-27T08:44:23;98556.44;;;3.10;100.00
27712;BME280;2377;51.734;8.950;2023-01-27T08:46:50;98558.84;;;3.12;100.00
27712;BME280;2377;51.734;8.950;2023-01-27T08:49:17;98563.44;;;3.16;100.00
27712;BME280;2377;51.734;8.950;2023-01-27T08:51:44;98561.22;;;3.13;100.00
27712;BME280;2377;51.734;8.950;2023-01-27T08:54:11;98568.63;;;3.15;100.00
27712;BME280;2377;51.734;8.950;2023-01-27T08:56:40;98571.31;;;3.13;100.00
27712;BME280;2377;51.734;8.950;2023-01-27T08:59:07;98574.63;;;3.14;100.00
27712;BME280;2377;51.734;8.950;2023-01-27T09:01:34;98580.78;;;3.11;100.00
27712;BME280;2377;51.734;8.950;2023-01-27T09:04:01;98587.25;;;3.14;100.00
27712;BME280;2377;51.734;8.950;2023-01-27T09:06:28;98584.88;;;3.12;100.00
27712;BME280;2377;51.734;8.950;2023-01-27T09:08:55;98586.63;;;3.12;100.00
27712;BME280;2377;51.734;8.950;2023-01-27T09:11:35;98593.53;;;3.10;100.00
27712;BME280;2377;51.734;8.950;2023-01-27T09:14:04;98587.41;;;3.12;100.00
27712;BME280;2377;51.734;8.950;2023-01-27T09:16:31;98598.03;;;3.16;100.00
27712;BME280;2377;51.734;8.950;2023-01-27T09:18:59;98600.41;;;3.17;100.00
27712;BME280;2377;51.734;8.950;2023-01-27T09:21:26;98599.59;;;3.17;100.00
27712;BME280;2377;51.734;8.950;2023-01-27T09:23:53;98604.22;;;3.22;100.00
27712;BME280;2377;51.734;8.950;2023-01-27T09:26:20;98595.41;;;3.26;100.00
27712;BME280;2377;51.734;8.950;2023-01-27T09:28:47;98605.53;;;3.26;100.00
27712;BME280;2377;51.734;8.950;2023-01-27T09:31:16;98607.91;;;3.27;100.00
27712;BME280;2377;51.734;8.950;2023-01-27T09:33:43;98609.19;;;3.31;100.00
27712;BME280;2377;51.734;8.950;2023-01-27T09:36:13;98610.50;;;3.35;100.00
27712;BME280;2377;51.734;8.950;2023-01-27T09:38:48;98618.59;;;3.39;100.00
27712;BME280;2377;51.734;8.950;2023-01-27T09:41:51;98615.75;;;3.42;100.00
27712;BME280;2377;51.734;8.950;2023-01-27T09:44:52;98614.81;;;3.43;100.00
27712;BME280;2377;51.734;8.950;2023-01-27T09:47:50;98619.16;;;3.51;100.00
27712;BME280;2377;51.734;8.950;2023-01-27T09:50:37;98620.38;;;3.47;100.00
27712;BME280;2377;51.734;8.950;2023-01-27T09:56:52;98619.84;;;3.43;100.00
27712;BME280;2377;51.734;8.950;2023-01-27T09:59:51;98626.44;;;3.36;100.00
27712;BME280;2377;51.734;8.950;2023-01-27T10:02:45;98626.72;;;3.33;100.00
27712;BME280;2377;51.734;8.950;2023-01-27T10:05:46;98634.31;;;3.33;100.00
27712;BME280;2377;51.734;8.950;2023-01-27T10:08:53;98630.56;;;3.37;100.00
27712;BME280;2377;51.734;8.950;2023-01-27T10:11:34;98626.94;;;3.39;100.00
27712;BME280;2377;51.734;8.950;2023-01-27T10:14:23;98622.59;;;3.50;100.00
27712;BME280;2377;51.734;8.950;2023-01-27T10:17:12;98631.53;;;3.62;100.00
27712;BME280;2377;51.734;8.950;2023-01-27T10:20:19;98632.84;;;3.66;100.00
27712;BME280;2377;51.734;8.950;2023-01-27T10:23:05;98634.63;;;3.74;100.00
27712;BME280;2377;51.734;8.950;2023-01-27T10:25:52;98632.25;;;3.72;100.00
27712;BME280;2377;51.734;8.950;2023-01-27T10:28:27;98629.28;;;3.77;100.00
27712;BME280;2377;51.734;8.950;2023-01-27T10:31:00;98634.03;;;3.80;100.00
27712;BME280;2377;51.734;8.950;2023-01-27T10:33:42;98630.59;;;3.81;100.00
27712;BME280;2377;51.734;8.950;2023-01-27T10:36:23;98632.16;;;3.82;100.00
27712;BME280;2377;51.734;8.950;2023-01-27T10:39:11;98634.72;;;3.90;100.00
27712;BME280;2377;51.734;8.950;2023-01-27T10:41:56;98627.53;;;4.03;100.00
27712;BME280;2377;51.734;8.950;2023-01-27T10:44:56;98627.69;;;4.28;100.00
27712;BME280;2377;51.734;8.950;2023-01-27T10:47:40;98631.53;;;4.40;100.00
27712;BME280;2377;51.734;8.950;2023-01-27T10:50:16;98634.00;;;4.32;98.69
27712;BME280;2377;51.734;8.950;2023-01-27T10:52:55;98634.31;;;4.29;98.38
27712;BME280;2377;51.734;8.950;2023-01-27T10:55:36;98624.50;;;4.26;99.14
27712;BME280;2377;51.734;8.950;2023-01-27T10:58:14;98630.47;;;4.17;98.94
27712;BME280;2377;51.734;8.950;2023-01-27T11:00:47;98620.47;;;4.07;98.82
27712;BME280;2377;51.734;8.950;2023-01-27T11:03:21;98620.75;;;4.04;99.30
27712;BME280;2377;51.734;8.950;2023-01-27T11:05:56;98617.28;;;4.05;98.67
27712;BME280;2377;51.734;8.950;2023-01-27T11:08:31;98624.88;;;4.05;99.06
27712;BME280;2377;51.734;8.950;2023-01-27T11:11:05;98625.00;;;4.03;99.12
27712;BME280;2377;51.734;8.950;2023-01-27T11:13:59;98630.22;;;4.02;99.12
27712;BME280;2377;51.734;8.950;2023-01-27T11:16:34;98618.81;;;3.98;98.20
27712;BME280;2377;51.734;8.950;2023-01-27T11:19:15;98616.88;;;3.92;98.70
27712;BME280;2377;51.734;8.950;2023-01-27T11:21:43;98620.53;;;3.97;98.27
27712;BME280;2377;51.734;8.950;2023-01-27T11:24:23;98622.94;;;3.99;98.64
27712;BME280;2377;51.734;8.950;2023-01-27T11:27:02;98626.75;;;4.03;98.73
27712;BME280;2377;51.734;8.950;2023-01-27T11:29:44;98630.84;;;4.04;97.57
27712;BME280;2377;51.734;8.950;2023-01-27T11:32:27;98627.41;;;4.05;96.97
27712;BME280;2377;51.734;8.950;2023-01-27T11:35:04;98631.94;;;4.01;96.63
27712;BME280;2377;51.734;8.950;2023-01-27T11:37:35;98636.72;;;4.05;96.95
27712;BME280;2377;51.734;8.950;2023-01-27T11:40:15;98629.28;;;4.03;97.02
27712;BME280;2377;51.734;8.950;2023-01-27T11:42:44;98637.78;;;4.02;96.94
27712;BME280;2377;51.734;8.950;2023-01-27T11:45:15;98633.69;;;4.01;96.76
27712;BME280;2377;51.734;8.950;2023-01-27T11:47:45;98637.78;;;4.02;96.73
27712;BME280;2377;51.734;8.950;2023-01-27T11:50:17;98634.34;;;4.03;96.30
27712;BME280;2377;51.734;8.950;2023-01-27T11:52:49;98635.00;;;4.05;97.00
27712;BME280;2377;51.734;8.950;2023-01-27T11:55:22;98637.22;;;4.08;96.40
27712;BME280;2377;51.734;8.950;2023-01-27T11:57:59;98637.50;;;4.05;96.78
27712;BME280;2377;51.734;8.950;2023-01-27T12:00:36;98637.75;;;3.94;96.06
27712;BME280;2377;51.734;8.950;2023-01-27T12:03:13;98632.63;;;3.86;96.35
27712;BME280;2377;51.734;8.950;2023-01-27T12:05:49;98633.59;;;3.85;96.96
27712;BME280;2377;51.734;8.950;2023-01-27T12:08:40;98634.03;;;3.80;96.86
27712;BME280;2377;51.734;8.950;2023-01-27T12:11:25;98634.81;;;3.80;96.67
27712;BME280;2377;51.734;8.950;2023-01-27T12:13:55;98638.78;;;3.83;96.73
27712;BME280;2377;51.734;8.950;2023-01-27T12:16:42;98634.69;;;3.82;96.43
27712;BME280;2377;51.734;8.950;2023-01-27T12:19:22;98642.56;;;3.79;97.21
27712;BME280;2377;51.734;8.950;2023-01-27T12:21:55;98636.69;;;3.78;97.28
27712;BME280;2377;51.734;8.950;2023-01-27T12:24:28;98633.69;;;3.75;96.99
27712;BME280;2377;51.734;8.950;2023-01-27T12:27:01;98636.53;;;3.72;96.81
27712;BME280;2377;51.734;8.950;2023-01-27T12:29:38;98639.41;;;3.77;96.32
27712;BME280;2377;51.734;8.950;2023-01-27T12:32:16;98638.88;;;3.73;96.75
27712;BME280;2377;51.734;8.950;2023-01-27T12:34:48;98634.91;;;3.71;96.02
27712;BME280;2377;51.734;8.950;2023-01-27T12:37:21;98633.34;;;3.70;96.04
27712;BME280;2377;51.734;8.950;2023-01-27T12:39:53;98625.75;;;3.70;96.43
27712;BME280;2377;51.734;8.950;2023-01-27T12:42:39;98623.38;;;3.68;97.13
27712;BME280;2377;51.734;8.950;2023-01-27T12:45:23;98621.97;;;3.74;97.13
27712;BME280;2377;51.734;8.950;2023-01-27T12:48:14;98625.47;;;3.73;96.86
27712;BME280;2377;51.734;8.950;2023-01-27T12:50:52;98618.53;;;3.75;96.52
27712;BME280;2377;51.734;8.950;2023-01-27T12:53:21;98617.88;;;3.73;96.40
27712;BME280;2377;51.734;8.950;2023-01-27T12:55:56;98624.66;;;3.72;96.51
27712;BME280;2377;51.734;8.950;2023-01-27T12:58:33;98617.81;;;3.65;96.51
27712;BME280;2377;51.734;8.950;2023-01-27T13:01:04;98623.16;;;3.62;96.97
27712;BME280;2377;51.734;8.950;2023-01-27T13:03:39;98625.69;;;3.62;96.95
27712;BME280;2377;51.734;8.950;2023-01-27T13:06:08;98621.22;;;3.55;98.08
27712;BME280;2377;51.734;8.950;2023-01-27T13:08:41;98618.84;;;3.54;97.44
27712;BME280;2377;51.734;8.950;2023-01-27T13:11:10;98623.75;;;3.55;98.58
27712;BME280;2377;51.734;8.950;2023-01-27T13:13:49;98630.69;;;3.53;97.17
27712;BME280;2377;51.734;8.950;2023-01-27T13:16:25;98623.38;;;3.50;97.04
27712;BME280;2377;51.734;8.950;2023-01-27T13:18:54;98625.66;;;3.53;97.31
27712;BME280;2377;51.734;8.950;2023-01-27T13:21:26;98615.88;;;3.58;97.62
27712;BME280;2377;51.734;8.950;2023-01-27T13:23:55;98616.22;;;3.64;97.48
27712;BME280;2377;51.734;8.950;2023-01-27T13:26:27;98614.03;;;3.69;97.43
27712;BME280;2377;51.734;8.950;2023-01-27T13:29:01;98617.56;;;3.76;97.74
27712;BME280;2377;51.734;8.950;2023-01-27T13:31:39;98622.19;;;3.80;96.98
27712;BME280;2377;51.734;8.950;2023-01-27T13:34:20;98623.00;;;3.81;96.65
27712;BME280;2377;51.734;8.950;2023-01-27T13:36:56;98627.22;;;3.80;96.19
27712;BME280;2377;51.734;8.950;2023-01-27T13:39:46;98627.53;;;3.77;96.48
27712;BME280;2377;51.734;8.950;2023-01-27T13:42:23;98628.94;;;3.72;95.98